Terminal Aerodrome Forecast
Issued by NWS

Home | Current Version | Previous Version | Text Only | Print | Product List | Glossary On
Versions: 1 2 3 4 5 6 7 8 9 10 11 12 13 14 15
490
FTUS44 KLZK 271724
TAFADF
TAF
KADF 271724Z 2718/2818 32008KT P6SM VCSH SCT060 BKN250
      TEMPO 2720/2723 3SM TSRA BR BKN030CB
     FM280100 03005KT P6SM BKN100
     FM280600 VRB03KT P6SM FEW250
     FM281500 07006KT P6SM FEW060=

USA.gov is the U.S. government's official web portal to all federal, state and local government web resources and services.